sensor_id;sensor_type;location;lat;lon;timestamp;temperature;humidity
30069;DHT22;16894;49.456;10.644;2024-01-15T00:01:58;-3.60;43.20
30069;DHT22;16894;49.456;10.644;2024-01-15T00:04:36;-3.60;41.80
30069;DHT22;16894;49.456;10.644;2024-01-15T00:07:02;-3.50;1.00
30069;DHT22;16894;49.456;10.644;2024-01-15T00:09:28;-3.60;1.00
30069;DHT22;16894;49.456;10.644;2024-01-15T00:11:54;-3.60;37.40
30069;DHT22;16894;49.456;10.644;2024-01-15T00:14:19;-3.50;29.80
30069;DHT22;16894;49.456;10.644;2024-01-15T00:16:46;-3.50;1.00
30069;DHT22;16894;49.456;10.644;2024-01-15T00:19:12;-3.50;7.10
30069;DHT22;16894;49.456;10.644;2024-01-15T00:21:37;-3.50;1.00
30069;DHT22;16894;49.456;10.644;2024-01-15T00:24:03;-3.40;35.00
30069;DHT22;16894;49.456;10.644;2024-01-15T00:26:29;-3.40;1.00
30069;DHT22;16894;49.456;10.644;2024-01-15T00:28:54;-3.40;1.00
30069;DHT22;16894;49.456;10.644;2024-01-15T00:31:20;-3.50;1.00
30069;DHT22;16894;49.456;10.644;2024-01-15T00:33:46;-3.50;48.80
30069;DHT22;16894;49.456;10.644;2024-01-15T00:36:11;-3.40;1.30
30069;DHT22;16894;49.456;10.644;2024-01-15T00:38:37;-3.40;90.80
30069;DHT22;16894;49.456;10.644;2024-01-15T00:41:03;-3.40;93.50
30069;DHT22;16894;49.456;10.644;2024-01-15T00:43:30;-3.30;91.70
30069;DHT22;16894;49.456;10.644;2024-01-15T00:45:56;-3.30;45.50
30069;DHT22;16894;49.456;10.644;2024-01-15T00:48:21;-3.30;48.70
30069;DHT22;16894;49.456;10.644;2024-01-15T00:50:47;-3.20;87.10
30069;DHT22;16894;49.456;10.644;2024-01-15T00:53:12;-3.20;87.10
30069;DHT22;16894;49.456;10.644;2024-01-15T00:55:39;-3.30;99.90
30069;DHT22;16894;49.456;10.644;2024-01-15T00:58:04;-3.20;99.90
30069;DHT22;16894;49.456;10.644;2024-01-15T01:00:30;-3.20;99.90
30069;DHT22;16894;49.456;10.644;2024-01-15T01:02:56;-3.20;99.90
30069;DHT22;16894;49.456;10.644;2024-01-15T01:05:21;-3.20;99.90
30069;DHT22;16894;49.456;10.644;2024-01-15T01:07:47;-3.20;99.90
30069;DHT22;16894;49.456;10.644;2024-01-15T01:10:12;-3.20;99.90
30069;DHT22;16894;49.456;10.644;2024-01-15T01:12:38;-3.20;99.90
30069;DHT22;16894;49.456;10.644;2024-01-15T01:15:04;-3.10;99.90
30069;DHT22;16894;49.456;10.644;2024-01-15T01:17:30;-3.10;99.90
30069;DHT22;16894;49.456;10.644;2024-01-15T01:19:56;-3.10;99.90
30069;DHT22;16894;49.456;10.644;2024-01-15T01:22:21;-3.10;99.90
30069;DHT22;16894;49.456;10.644;2024-01-15T01:24:47;-3.00;99.90
30069;DHT22;16894;49.456;10.644;2024-01-15T01:27:13;-3.00;99.90
30069;DHT22;16894;49.456;10.644;2024-01-15T01:29:38;-3.00;99.90
30069;DHT22;16894;49.456;10.644;2024-01-15T01:32:04;-3.00;99.90
30069;DHT22;16894;49.456;10.644;2024-01-15T01:34:32;-2.90;99.90
30069;DHT22;16894;49.456;10.644;2024-01-15T01:36:58;-2.90;99.90
30069;DHT22;16894;49.456;10.644;2024-01-15T01:39:23;-2.90;99.90
30069;DHT22;16894;49.456;10.644;2024-01-15T01:41:49;-2.90;99.90
30069;DHT22;16894;49.456;10.644;2024-01-15T01:44:15;-2.80;99.90
30069;DHT22;16894;49.456;10.644;2024-01-15T01:46:41;-2.90;99.90
30069;DHT22;16894;49.456;10.644;2024-01-15T01:49:08;-2.90;99.90
30069;DHT22;16894;49.456;10.644;2024-01-15T01:51:35;-2.80;99.90
30069;DHT22;16894;49.456;10.644;2024-01-15T01:54:01;-2.90;99.90
30069;DHT22;16894;49.456;10.644;2024-01-15T01:56:27;-2.90;99.90
30069;DHT22;16894;49.456;10.644;2024-01-15T01:58:54;-2.90;99.90
30069;DHT22;16894;49.456;10.644;2024-01-15T02:01:19;-2.90;99.90
30069;DHT22;16894;49.456;10.644;2024-01-15T02:03:45;-2.90;99.90
30069;DHT22;16894;49.456;10.644;2024-01-15T02:06:11;-2.80;99.90
30069;DHT22;16894;49.456;10.644;2024-01-15T02:08:37;-2.80;99.90
30069;DHT22;16894;49.456;10.644;2024-01-15T02:11:03;-2.80;99.90
30069;DHT22;16894;49.456;10.644;2024-01-15T02:13:29;-2.80;99.90
30069;DHT22;16894;49.456;10.644;2024-01-15T02:15:55;-2.70;99.90
30069;DHT22;16894;49.456;10.644;2024-01-15T02:18:20;-2.70;99.90
30069;DHT22;16894;49.456;10.644;2024-01-15T02:20:46;-2.70;99.90
30069;DHT22;16894;49.456;10.644;2024-01-15T02:23:13;-2.70;99.90
30069;DHT22;16894;49.456;10.644;2024-01-15T02:25:40;-2.60;99.90
30069;DHT22;16894;49.456;10.644;2024-01-15T02:28:08;-2.60;99.90
30069;DHT22;16894;49.456;10.644;2024-01-15T02:30:38;-2.60;99.90
30069;DHT22;16894;49.456;10.644;2024-01-15T02:33:08;-2.60;99.90
30069;DHT22;16894;49.456;10.644;2024-01-15T02:35:34;-2.60;99.90
30069;DHT22;16894;49.456;10.644;2024-01-15T02:38:02;-2.60;99.90
30069;DHT22;16894;49.456;10.644;2024-01-15T02:40:28;-2.50;99.90
30069;DHT22;16894;49.456;10.644;2024-01-15T02:42:54;-2.50;99.90
30069;DHT22;16894;49.456;10.644;2024-01-15T02:45:20;-2.50;99.90
30069;DHT22;16894;49.456;10.644;2024-01-15T02:47:46;-2.60;1.00
30069;DHT22;16894;49.456;10.644;2024-01-15T02:50:12;-2.60;1.00
30069;DHT22;16894;49.456;10.644;2024-01-15T02:52:37;-2.60;1.00
30069;DHT22;16894;49.456;10.644;2024-01-15T02:55:04;-2.60;1.00
30069;DHT22;16894;49.456;10.644;2024-01-15T02:57:29;-2.60;1.00
30069;DHT22;16894;49.456;10.644;2024-01-15T02:59:55;-2.60;1.00
30069;DHT22;16894;49.456;10.644;2024-01-15T03:02:21;-2.60;1.00
30069;DHT22;16894;49.456;10.644;2024-01-15T03:04:46;-2.60;1.00
30069;DHT22;16894;49.456;10.644;2024-01-15T03:07:12;-2.50;1.00
30069;DHT22;16894;49.456;10.644;2024-01-15T03:09:38;-2.50;1.00
30069;DHT22;16894;49.456;10.644;2024-01-15T03:12:04;-2.50;1.00
30069;DHT22;16894;49.456;10.644;2024-01-15T03:14:30;-2.50;1.00
30069;DHT22;16894;49.456;10.644;2024-01-15T03:16:56;-2.50;1.00
30069;DHT22;16894;49.456;10.644;2024-01-15T03:19:21;-2.50;1.00
30069;DHT22;16894;49.456;10.644;2024-01-15T03:21:47;-2.50;1.00
30069;DHT22;16894;49.456;10.644;2024-01-15T03:24:13;-2.50;1.00
30069;DHT22;16894;49.456;10.644;2024-01-15T03:26:38;-2.50;99.90
30069;DHT22;16894;49.456;10.644;2024-01-15T03:29:04;-2.50;99.90
30069;DHT22;16894;49.456;10.644;2024-01-15T03:31:30;-2.40;99.90
30069;DHT22;16894;49.456;10.644;2024-01-15T03:33:56;-2.40;99.90
30069;DHT22;16894;49.456;10.644;2024-01-15T03:36:21;-2.40;99.90
30069;DHT22;16894;49.456;10.644;2024-01-15T03:38:47;-2.50;99.90
30069;DHT22;16894;49.456;10.644;2024-01-15T03:41:13;-2.50;1.00
30069;DHT22;16894;49.456;10.644;2024-01-15T03:43:39;-2.50;1.00
30069;DHT22;16894;49.456;10.644;2024-01-15T03:46:05;-2.40;1.00
30069;DHT22;16894;49.456;10.644;2024-01-15T03:48:31;-2.40;99.90
30069;DHT22;16894;49.456;10.644;2024-01-15T03:50:57;-2.40;99.90
30069;DHT22;16894;49.456;10.644;2024-01-15T03:53:23;-2.40;99.90
30069;DHT22;16894;49.456;10.644;2024-01-15T03:55:50;-2.40;99.90
30069;DHT22;16894;49.456;10.644;2024-01-15T03:58:16;-2.30;99.90
30069;DHT22;16894;49.456;10.644;2024-01-15T04:00:43;-2.30;99.90
30069;DHT22;16894;49.456;10.644;2024-01-15T04:03:09;-2.30;99.90
30069;DHT22;16894;49.456;10.644;2024-01-15T04:05:35;-2.30;99.90
30069;DHT22;16894;49.456;10.644;2024-01-15T04:08:00;-2.30;99.90
30069;DHT22;16894;49.456;10.644;2024-01-15T04:10:26;-2.20;99.90
30069;DHT22;16894;49.456;10.644;2024-01-15T04:12:52;-2.20;99.90
30069;DHT22;16894;49.456;10.644;2024-01-15T04:15:17;-2.20;99.90
30069;DHT22;16894;49.456;10.644;2024-01-15T04:17:43;-2.30;99.90
30069;DHT22;16894;49.456;10.644;2024-01-15T04:20:09;-2.20;99.90
30069;DHT22;16894;49.456;10.644;2024-01-15T04:22:35;-2.20;99.90
30069;DHT22;16894;49.456;10.644;2024-01-15T04:25:01;-2.20;99.90
30069;DHT22;16894;49.456;10.644;2024-01-15T04:27:27;-2.20;99.90
30069;DHT22;16894;49.456;10.644;2024-01-15T04:29:53;-2.20;99.90
30069;DHT22;16894;49.456;10.644;2024-01-15T04:32:19;-2.20;99.90
30069;DHT22;16894;49.456;10.644;2024-01-15T04:34:45;-2.20;99.90
30069;DHT22;16894;49.456;10.644;2024-01-15T04:37:11;-2.20;99.90
30069;DHT22;16894;49.456;10.644;2024-01-15T04:39:36;-2.20;99.90
30069;DHT22;16894;49.456;10.644;2024-01-15T04:42:02;-2.20;99.90
30069;DHT22;16894;49.456;10.644;2024-01-15T04:44:28;-2.10;99.90
30069;DHT22;16894;49.456;10.644;2024-01-15T04:46:55;-2.10;99.90
30069;DHT22;16894;49.456;10.644;2024-01-15T04:49:21;-2.20;99.90
30069;DHT22;16894;49.456;10.644;2024-01-15T04:51:46;-2.20;99.90
30069;DHT22;16894;49.456;10.644;2024-01-15T04:54:12;-2.20;99.90
30069;DHT22;16894;49.456;10.644;2024-01-15T04:56:38;-2.10;99.90
30069;DHT22;16894;49.456;10.644;2024-01-15T04:59:04;-2.10;99.90
30069;DHT22;16894;49.456;10.644;2024-01-15T05:01:32;-2.10;99.90
30069;DHT22;16894;49.456;10.644;2024-01-15T05:03:58;-2.10;99.90
30069;DHT22;16894;49.456;10.644;2024-01-15T05:06:24;-2.10;99.90
30069;DHT22;16894;49.456;10.644;2024-01-15T05:08:50;-2.10;99.90
30069;DHT22;16894;49.456;10.644;2024-01-15T05:11:16;-2.10;99.90
30069;DHT22;16894;49.456;10.644;2024-01-15T05:13:43;-2.10;99.90
30069;DHT22;16894;49.456;10.644;2024-01-15T05:16:08;-2.10;99.90
30069;DHT22;16894;49.456;10.644;2024-01-15T05:18:34;-2.00;99.90
30069;DHT22;16894;49.456;10.644;2024-01-15T05:21:00;-2.00;99.90
30069;DHT22;16894;49.456;10.644;2024-01-15T05:23:25;-2.00;99.90
30069;DHT22;16894;49.456;10.644;2024-01-15T05:25:54;-2.00;99.90
30069;DHT22;16894;49.456;10.644;2024-01-15T05:28:20;-2.00;99.90
30069;DHT22;16894;49.456;10.644;2024-01-15T05:30:45;-2.00;99.90
30069;DHT22;16894;49.456;10.644;2024-01-15T05:33:12;-2.00;99.90
30069;DHT22;16894;49.456;10.644;2024-01-15T05:35:38;-2.00;99.90
30069;DHT22;16894;49.456;10.644;2024-01-15T05:38:03;-2.00;99.90
30069;DHT22;16894;49.456;10.644;2024-01-15T05:40:29;-1.90;99.90
30069;DHT22;16894;49.456;10.644;2024-01-15T05:42:54;-1.90;99.90
30069;DHT22;16894;49.456;10.644;2024-01-15T05:45:20;-1.90;99.90
30069;DHT22;16894;49.456;10.644;2024-01-15T05:47:46;-1.90;99.90
30069;DHT22;16894;49.456;10.644;2024-01-15T05:50:12;-1.90;99.90
30069;DHT22;16894;49.456;10.644;2024-01-15T05:52:37;-1.90;99.90
30069;DHT22;16894;49.456;10.644;2024-01-15T05:55:04;-1.90;99.90
30069;DHT22;16894;49.456;10.644;2024-01-15T05:57:30;-1.90;99.90
30069;DHT22;16894;49.456;10.644;2024-01-15T05:59:56;-1.90;99.90
30069;DHT22;16894;49.456;10.644;2024-01-15T06:02:21;-1.90;99.90
30069;DHT22;16894;49.456;10.644;2024-01-15T06:04:47;-1.90;99.90
30069;DHT22;16894;49.456;10.644;2024-01-15T06:07:13;-1.90;99.90
30069;DHT22;16894;49.456;10.644;2024-01-15T06:09:38;-1.90;99.90
30069;DHT22;16894;49.456;10.644;2024-01-15T06:12:06;-1.90;99.90
30069;DHT22;16894;49.456;10.644;2024-01-15T06:14:32;-1.90;99.90
30069;DHT22;16894;49.456;10.644;2024-01-15T06:16:58;-1.90;99.90
30069;DHT22;16894;49.456;10.644;2024-01-15T06:19:23;-1.90;99.90
30069;DHT22;16894;49.456;10.644;2024-01-15T06:21:49;-1.90;99.90
30069;DHT22;16894;49.456;10.644;2024-01-15T06:24:14;-1.90;99.90
30069;DHT22;16894;49.456;10.644;2024-01-15T06:26:41;-1.90;99.90
30069;DHT22;16894;49.456;10.644;2024-01-15T06:29:06;-1.90;99.90
30069;DHT22;16894;49.456;10.644;2024-01-15T06:31:33;-1.80;99.90
30069;DHT22;16894;49.456;10.644;2024-01-15T06:33:58;-1.80;99.90
30069;DHT22;16894;49.456;10.644;2024-01-15T06:36:24;-1.80;99.90
30069;DHT22;16894;49.456;10.644;2024-01-15T06:38:50;-1.80;99.90
30069;DHT22;16894;49.456;10.644;2024-01-15T06:41:16;-1.70;99.90
30069;DHT22;16894;49.456;10.644;2024-01-15T06:43:41;-1.70;99.90
30069;DHT22;16894;49.456;10.644;2024-01-15T06:46:07;-1.70;99.90
30069;DHT22;16894;49.456;10.644;2024-01-15T06:48:33;-1.60;99.90
30069;DHT22;16894;49.456;10.644;2024-01-15T06:50:58;-1.70;99.90
30069;DHT22;16894;49.456;10.644;2024-01-15T06:53:24;-1.80;1.00
30069;DHT22;16894;49.456;10.644;2024-01-15T06:55:51;-1.70;1.00
30069;DHT22;16894;49.456;10.644;2024-01-15T06:58:17;-1.70;1.00
30069;DHT22;16894;49.456;10.644;2024-01-15T07:00:43;-1.80;1.00
30069;DHT22;16894;49.456;10.644;2024-01-15T07:03:08;-1.70;1.00
30069;DHT22;16894;49.456;10.644;2024-01-15T07:05:34;-1.70;1.00
30069;DHT22;16894;49.456;10.644;2024-01-15T07:08:00;-1.80;1.00
30069;DHT22;16894;49.456;10.644;2024-01-15T07:10:25;-1.80;99.90
30069;DHT22;16894;49.456;10.644;2024-01-15T07:12:52;-1.80;99.90
30069;DHT22;16894;49.456;10.644;2024-01-15T07:15:17;-1.80;99.90
30069;DHT22;16894;49.456;10.644;2024-01-15T07:17:43;-1.80;99.90
30069;DHT22;16894;49.456;10.644;2024-01-15T07:20:09;-1.70;99.90
30069;DHT22;16894;49.456;10.644;2024-01-15T07:22:38;-1.70;99.90
30069;DHT22;16894;49.456;10.644;2024-01-15T07:25:05;-1.70;99.90
30069;DHT22;16894;49.456;10.644;2024-01-15T07:27:32;-1.70;99.90
30069;DHT22;16894;49.456;10.644;2024-01-15T07:29:58;-1.70;99.90
30069;DHT22;16894;49.456;10.644;2024-01-15T07:32:24;-1.60;99.90
30069;DHT22;16894;49.456;10.644;2024-01-15T07:34:49;-1.60;99.90
30069;DHT22;16894;49.456;10.644;2024-01-15T07:37:15;-1.60;99.90
30069;DHT22;16894;49.456;10.644;2024-01-15T07:39:41;-1.60;99.90
30069;DHT22;16894;49.456;10.644;2024-01-15T07:42:06;-1.60;99.90
30069;DHT22;16894;49.456;10.644;2024-01-15T07:44:33;-1.50;99.90
30069;DHT22;16894;49.456;10.644;2024-01-15T07:46:58;-1.50;99.90
30069;DHT22;16894;49.456;10.644;2024-01-15T07:49:24;-1.50;99.90
30069;DHT22;16894;49.456;10.644;2024-01-15T07:51:50;-1.40;99.90
30069;DHT22;16894;49.456;10.644;2024-01-15T07:54:15;-1.40;99.90
30069;DHT22;16894;49.456;10.644;2024-01-15T07:57:02;-1.40;99.90
30069;DHT22;16894;49.456;10.644;2024-01-15T07:59:30;-1.40;99.90
30069;DHT22;16894;49.456;10.644;2024-01-15T08:01:58;-1.40;99.90
30069;DHT22;16894;49.456;10.644;2024-01-15T08:04:24;-1.40;99.90
30069;DHT22;16894;49.456;10.644;2024-01-15T08:06:50;-1.30;99.90
30069;DHT22;16894;49.456;10.644;2024-01-15T08:09:15;-1.20;99.90
30069;DHT22;16894;49.456;10.644;2024-01-15T08:11:42;-1.20;99.90
30069;DHT22;16894;49.456;10.644;2024-01-15T08:14:08;-1.20;99.90
30069;DHT22;16894;49.456;10.644;2024-01-15T08:16:35;-1.20;99.90
30069;DHT22;16894;49.456;10.644;2024-01-15T08:19:00;-1.20;99.90
30069;DHT22;16894;49.456;10.644;2024-01-15T08:21:26;-1.10;99.90
30069;DHT22;16894;49.456;10.644;2024-01-15T08:23:58;-1.10;99.90
30069;DHT22;16894;49.456;10.644;2024-01-15T08:26:24;-1.20;99.90
30069;DHT22;16894;49.456;10.644;2024-01-15T08:28:50;-1.20;99.90
30069;DHT22;16894;49.456;10.644;2024-01-15T08:31:16;-1.20;99.90
30069;DHT22;16894;49.456;10.644;2024-01-15T08:33:42;-1.10;99.90
30069;DHT22;16894;49.456;10.644;2024-01-15T08:36:12;-1.10;99.90
30069;DHT22;16894;49.456;10.644;2024-01-15T08:38:38;-1.00;99.90
30069;DHT22;16894;49.456;10.644;2024-01-15T08:41:04;-1.10;99.90
30069;DHT22;16894;49.456;10.644;2024-01-15T08:43:30;-1.00;99.90
30069;DHT22;16894;49.456;10.644;2024-01-15T08:45:57;-1.00;99.90
30069;DHT22;16894;49.456;10.644;2024-01-15T08:48:22;-1.00;99.90
30069;DHT22;16894;49.456;10.644;2024-01-15T08:50:48;-0.90;99.90
30069;DHT22;16894;49.456;10.644;2024-01-15T08:53:14;-0.90;99.90
30069;DHT22;16894;49.456;10.644;2024-01-15T08:55:40;-0.90;99.90
30069;DHT22;16894;49.456;10.644;2024-01-15T08:58:10;-0.90;99.90
30069;DHT22;16894;49.456;10.644;2024-01-15T09:00:35;-0.90;99.90
30069;DHT22;16894;49.456;10.644;2024-01-15T09:03:02;-0.90;99.90
30069;DHT22;16894;49.456;10.644;2024-01-15T09:05:27;-0.90;99.90
30069;DHT22;16894;49.456;10.644;2024-01-15T09:07:54;-0.80;99.90
30069;DHT22;16894;49.456;10.644;2024-01-15T09:10:20;-0.90;99.90
30069;DHT22;16894;49.456;10.644;2024-01-15T09:12:46;-0.80;99.90
30069;DHT22;16894;49.456;10.644;2024-01-15T09:15:12;-0.80;99.90
30069;DHT22;16894;49.456;10.644;2024-01-15T09:17:38;-0.70;99.90
30069;DHT22;16894;49.456;10.644;2024-01-15T09:20:04;-0.70;99.90
30069;DHT22;16894;49.456;10.644;2024-01-15T09:22:31;-0.60;99.90
30069;DHT22;16894;49.456;10.644;2024-01-15T09:24:57;-0.60;99.90
30069;DHT22;16894;49.456;10.644;2024-01-15T09:27:22;-0.70;99.90
30069;DHT22;16894;49.456;10.644;2024-01-15T09:29:48;-0.60;99.90
30069;DHT22;16894;49.456;10.644;2024-01-15T09:32:14;-0.60;99.90
30069;DHT22;16894;49.456;10.644;2024-01-15T09:34:41;-0.60;99.90
30069;DHT22;16894;49.456;10.644;2024-01-15T09:37:07;-0.60;99.90
30069;DHT22;16894;49.456;10.644;2024-01-15T09:39:32;-0.60;99.90
30069;DHT22;16894;49.456;10.644;2024-01-15T09:41:59;-0.50;99.90
30069;DHT22;16894;49.456;10.644;2024-01-15T09:44:25;-0.40;99.90
30069;DHT22;16894;49.456;10.644;2024-01-15T09:46:52;-0.50;99.90
30069;DHT22;16894;49.456;10.644;2024-01-15T09:49:19;-0.50;99.90
30069;DHT22;16894;49.456;10.644;2024-01-15T09:51:45;-0.40;99.90
30069;DHT22;16894;49.456;10.644;2024-01-15T09:54:11;-0.50;99.90
30069;DHT22;16894;49.456;10.644;2024-01-15T09:56:39;-0.50;99.90
30069;DHT22;16894;49.456;10.644;2024-01-15T09:59:05;-0.50;99.90
30069;DHT22;16894;49.456;10.644;2024-01-15T10:01:32;-0.50;99.90
30069;DHT22;16894;49.456;10.644;2024-01-15T10:03:59;-0.60;99.90
30069;DHT22;16894;49.456;10.644;2024-01-15T10:06:26;-0.50;99.90
30069;DHT22;16894;49.456;10.644;2024-01-15T10:08:57;-0.60;99.90
30069;DHT22;16894;49.456;10.644;2024-01-15T10:11:26;-0.60;99.90
30069;DHT22;16894;49.456;10.644;2024-01-15T10:13:52;-0.60;99.90
30069;DHT22;16894;49.456;10.644;2024-01-15T10:16:21;-0.60;99.90
30069;DHT22;16894;49.456;10.644;2024-01-15T10:18:48;-0.70;99.90
30069;DHT22;16894;49.456;10.644;2024-01-15T10:21:13;-0.60;99.90
30069;DHT22;16894;49.456;10.644;2024-01-15T10:23:39;-0.70;99.90
30069;DHT22;16894;49.456;10.644;2024-01-15T10:26:05;-0.60;99.90
30069;DHT22;16894;49.456;10.644;2024-01-15T10:28:31;-0.60;99.90
30069;DHT22;16894;49.456;10.644;2024-01-15T10:30:58;-0.50;99.90
30069;DHT22;16894;49.456;10.644;2024-01-15T10:33:25;-0.60;99.90
30069;DHT22;16894;49.456;10.644;2024-01-15T10:35:54;-0.60;99.90
30069;DHT22;16894;49.456;10.644;2024-01-15T10:38:21;-0.60;99.90
30069;DHT22;16894;49.456;10.644;2024-01-15T10:40:50;-0.60;99.90
30069;DHT22;16894;49.456;10.644;2024-01-15T10:43:16;-0.60;99.90
30069;DHT22;16894;49.456;10.644;2024-01-15T10:45:45;-0.60;99.90
30069;DHT22;16894;49.456;10.644;2024-01-15T10:48:10;-0.50;99.90
30069;DHT22;16894;49.456;10.644;2024-01-15T10:50:37;-0.50;99.90
30069;DHT22;16894;49.456;10.644;2024-01-15T10:53:03;-0.40;99.90
30069;DHT22;16894;49.456;10.644;2024-01-15T10:55:30;-0.40;99.90
30069;DHT22;16894;49.456;10.644;2024-01-15T10:57:58;-0.30;99.90
30069;DHT22;16894;49.456;10.644;2024-01-15T11:00:24;-0.20;99.90
30069;DHT22;16894;49.456;10.644;2024-01-15T11:02:51;-0.20;99.90
30069;DHT22;16894;49.456;10.644;2024-01-15T11:05:23;-0.20;99.90
30069;DHT22;16894;49.456;10.644;2024-01-15T11:07:50;-0.20;99.90
30069;DHT22;16894;49.456;10.644;2024-01-15T11:10:39;-0.10;99.90
30069;DHT22;16894;49.456;10.644;2024-01-15T11:13:09;-0.20;99.90
30069;DHT22;16894;49.456;10.644;2024-01-15T11:16:07;-0.30;99.90
30069;DHT22;16894;49.456;10.644;2024-01-15T11:18:36;-0.20;99.90
30069;DHT22;16894;49.456;10.644;2024-01-15T11:23:50;-0.20;99.90
30069;DHT22;16894;49.456;10.644;2024-01-15T11:26:32;-0.20;99.90
30069;DHT22;16894;49.456;10.644;2024-01-15T11:29:10;-0.10;99.90
30069;DHT22;16894;49.456;10.644;2024-01-15T11:32:04;-0.10;99.90
30069;DHT22;16894;49.456;10.644;2024-01-15T11:37:14;-0.10;99.90
30069;DHT22;16894;49.456;10.644;2024-01-15T11:39:41;-0.10;99.90
30069;DHT22;16894;49.456;10.644;2024-01-15T11:42:09;-0.10;99.90
30069;DHT22;16894;49.456;10.644;2024-01-15T11:44:35;-0.10;99.90
30069;DHT22;16894;49.456;10.644;2024-01-15T11:47:08;-0.10;99.90
30069;DHT22;16894;49.456;10.644;2024-01-15T11:52:20;-0.20;99.90
30069;DHT22;16894;49.456;10.644;2024-01-15T12:00:03;-0.30;99.90
30069;DHT22;16894;49.456;10.644;2024-01-15T12:02:29;-0.20;99.90
30069;DHT22;16894;49.456;10.644;2024-01-15T12:04:55;-0.10;99.90
30069;DHT22;16894;49.456;10.644;2024-01-15T12:07:21;-0.10;99.90
30069;DHT22;16894;49.456;10.644;2024-01-15T12:09:46;-0.10;99.90
30069;DHT22;16894;49.456;10.644;2024-01-15T12:12:21;0.00;99.90
30069;DHT22;16894;49.456;10.644;2024-01-15T12:14:49;0.00;99.90
30069;DHT22;16894;49.456;10.644;2024-01-15T12:17:14;0.00;99.90
30069;DHT22;16894;49.456;10.644;2024-01-15T12:19:40;0.00;99.90
30069;DHT22;16894;49.456;10.644;2024-01-15T12:22:06;0.00;99.90
30069;DHT22;16894;49.456;10.644;2024-01-15T12:24:31;-0.10;99.90
30069;DHT22;16894;49.456;10.644;2024-01-15T12:26:57;-0.10;99.90
30069;DHT22;16894;49.456;10.644;2024-01-15T12:29:23;-0.10;99.90
30069;DHT22;16894;49.456;10.644;2024-01-15T12:31:48;0.10;99.90
30069;DHT22;16894;49.456;10.644;2024-01-15T12:34:14;0.00;99.90
30069;DHT22;16894;49.456;10.644;2024-01-15T12:36:40;0.00;99.90
30069;DHT22;16894;49.456;10.644;2024-01-15T12:39:11;0.00;99.90
30069;DHT22;16894;49.456;10.644;2024-01-15T12:41:37;0.00;99.90
30069;DHT22;16894;49.456;10.644;2024-01-15T12:44:03;0.00;99.90
30069;DHT22;16894;49.456;10.644;2024-01-15T12:46:29;0.10;99.90
30069;DHT22;16894;49.456;10.644;2024-01-15T12:48:56;0.00;99.90
30069;DHT22;16894;49.456;10.644;2024-01-15T12:51:25;0.10;99.90
30069;DHT22;16894;49.456;10.644;2024-01-15T12:53:51;0.10;99.90
30069;DHT22;16894;49.456;10.644;2024-01-15T12:56:17;0.00;99.90
30069;DHT22;16894;49.456;10.644;2024-01-15T12:58:43;0.00;99.90
30069;DHT22;16894;49.456;10.644;2024-01-15T13:01:08;0.00;99.90
30069;DHT22;16894;49.456;10.644;2024-01-15T13:03:35;0.00;99.90
30069;DHT22;16894;49.456;10.644;2024-01-15T13:06:01;-0.10;99.90
30069;DHT22;16894;49.456;10.644;2024-01-15T13:08:27;-0.10;99.90
30069;DHT22;16894;49.456;10.644;2024-01-15T13:10:55;-0.10;99.90
30069;DHT22;16894;49.456;10.644;2024-01-15T13:13:22;0.00;99.90
30069;DHT22;16894;49.456;10.644;2024-01-15T13:15:48;0.00;99.90
30069;DHT22;16894;49.456;10.644;2024-01-15T13:18:13;0.00;99.90
30069;DHT22;16894;49.456;10.644;2024-01-15T13:20:39;0.00;99.90
30069;DHT22;16894;49.456;10.644;2024-01-15T13:23:05;0.00;99.90
30069;DHT22;16894;49.456;10.644;2024-01-15T13:25:31;-0.10;99.90
30069;DHT22;16894;49.456;10.644;2024-01-15T13:27:57;-0.10;99.90
30069;DHT22;16894;49.456;10.644;2024-01-15T13:30:23;-0.10;99.90
30069;DHT22;16894;49.456;10.644;2024-01-15T13:32:49;-0.10;99.90
30069;DHT22;16894;49.456;10.644;2024-01-15T13:35:14;-0.20;99.90
30069;DHT22;16894;49.456;10.644;2024-01-15T13:37:41;-0.20;99.90
30069;DHT22;16894;49.456;10.644;2024-01-15T13:40:10;-0.20;1.00
30069;DHT22;16894;49.456;10.644;2024-01-15T13:42:42;-0.20;1.00
30069;DHT22;16894;49.456;10.644;2024-01-15T13:45:07;-0.30;1.00
30069;DHT22;16894;49.456;10.644;2024-01-15T13:47:33;-0.30;1.00
30069;DHT22;16894;49.456;10.644;2024-01-15T13:49:59;-0.30;1.00
30069;DHT22;16894;49.456;10.644;2024-01-15T13:52:25;-0.40;1.00
30069;DHT22;16894;49.456;10.644;2024-01-15T13:54:51;-0.30;1.00
30069;DHT22;16894;49.456;10.644;2024-01-15T13:57:17;-0.30;1.00
30069;DHT22;16894;49.456;10.644;2024-01-15T13:59:44;-0.40;1.00
30069;DHT22;16894;49.456;10.644;2024-01-15T14:02:10;-0.30;1.00
30069;DHT22;16894;49.456;10.644;2024-01-15T14:04:36;-0.20;1.00
30069;DHT22;16894;49.456;10.644;2024-01-15T14:07:02;-0.20;1.00
30069;DHT22;16894;49.456;10.644;2024-01-15T14:09:28;-0.20;99.90
30069;DHT22;16894;49.456;10.644;2024-01-15T14:11:54;-0.20;99.90
30069;DHT22;16894;49.456;10.644;2024-01-15T14:14:20;-0.20;99.90
30069;DHT22;16894;49.456;10.644;2024-01-15T14:16:45;-0.10;99.90
30069;DHT22;16894;49.456;10.644;2024-01-15T14:19:12;-0.10;99.90
30069;DHT22;16894;49.456;10.644;2024-01-15T14:21:37;-0.10;99.90
30069;DHT22;16894;49.456;10.644;2024-01-15T14:24:04;0.00;99.90
30069;DHT22;16894;49.456;10.644;2024-01-15T14:26:29;0.00;99.90
30069;DHT22;16894;49.456;10.644;2024-01-15T14:28:55;0.00;99.90
30069;DHT22;16894;49.456;10.644;2024-01-15T14:31:21;0.00;92.00
30069;DHT22;16894;49.456;10.644;2024-01-15T14:33:47;-0.10;99.90
30069;DHT22;16894;49.456;10.644;2024-01-15T14:36:12;-0.10;99.90
30069;DHT22;16894;49.456;10.644;2024-01-15T14:38:38;-0.10;25.10
30069;DHT22;16894;49.456;10.644;2024-01-15T14:41:03;-0.20;99.90
30069;DHT22;16894;49.456;10.644;2024-01-15T14:43:29;-0.20;99.90
30069;DHT22;16894;49.456;10.644;2024-01-15T14:45:55;-0.20;94.40
30069;DHT22;16894;49.456;10.644;2024-01-15T14:48:22;-0.20;99.90
30069;DHT22;16894;49.456;10.644;2024-01-15T14:50:48;-0.20;99.90
30069;DHT22;16894;49.456;10.644;2024-01-15T14:53:15;-0.30;99.90
30069;DHT22;16894;49.456;10.644;2024-01-15T14:55:41;-0.30;99.90
30069;DHT22;16894;49.456;10.644;2024-01-15T14:58:06;-0.30;95.80
30069;DHT22;16894;49.456;10.644;2024-01-15T15:00:32;-0.30;99.90
30069;DHT22;16894;49.456;10.644;2024-01-15T15:02:58;-0.30;99.90
30069;DHT22;16894;49.456;10.644;2024-01-15T15:05:24;-0.30;99.90
30069;DHT22;16894;49.456;10.644;2024-01-15T15:07:51;-0.30;99.90
30069;DHT22;16894;49.456;10.644;2024-01-15T15:10:18;-0.30;99.90
30069;DHT22;16894;49.456;10.644;2024-01-15T15:12:43;-0.30;99.90
30069;DHT22;16894;49.456;10.644;2024-01-15T15:15:09;-0.40;99.90
30069;DHT22;16894;49.456;10.644;2024-01-15T15:17:37;-0.50;99.90
30069;DHT22;16894;49.456;10.644;2024-01-15T15:20:04;-0.50;99.90
30069;DHT22;16894;49.456;10.644;2024-01-15T15:22:30;-0.50;99.90
30069;DHT22;16894;49.456;10.644;2024-01-15T15:24:56;-0.60;1.00
30069;DHT22;16894;49.456;10.644;2024-01-15T15:27:22;-0.50;1.00
30069;DHT22;16894;49.456;10.644;2024-01-15T15:29:48;-0.50;99.90